createdAt,value
2017-07-04T00:01:19.397Z,23.99
2017-07-04T00:02:15.438Z,23.98
2017-07-04T00:03:15.036Z,23.96
2017-07-04T00:04:15.496Z,24.02
2017-07-04T00:05:14.619Z,23.96
2017-07-04T00:06:14.856Z,24.02
2017-07-04T00:07:15.632Z,23.99
2017-07-04T00:08:15.044Z,24.03
2017-07-04T00:09:14.656Z,24.03
2017-07-04T00:10:15.100Z,24.02
2017-07-04T00:11:14.826Z,23.99
2017-07-04T00:12:14.862Z,24.06
2017-07-04T00:13:14.400Z,23.96
2017-07-04T00:14:14.636Z,23.95
2017-07-04T00:15:14.574Z,24.01
2017-07-04T00:16:14.207Z,24.03
2017-07-04T00:17:14.452Z,24.01
2017-07-04T00:18:14.386Z,23.99
2017-07-04T00:19:14.016Z,24.01
2017-07-04T00:20:14.264Z,24.03
2017-07-04T00:21:14.200Z,24.05
2017-07-04T00:22:14.130Z,24.05
2017-07-04T00:23:13.463Z,23.98
2017-07-04T00:24:14.012Z,24.06
2017-07-04T00:25:13.946Z,23.98
2017-07-04T00:26:13.582Z,24.02
2017-07-04T00:27:13.824Z,24.08
2017-07-04T00:28:13.760Z,24.02
2017-07-04T00:29:13.390Z,24.02
2017-07-04T00:30:13.632Z,24.01
2017-07-04T00:31:13.264Z,24.05
2017-07-04T00:32:13.507Z,23.99
2017-07-04T00:33:13.239Z,24.02
2017-07-04T00:34:13.084Z,24.06
2017-07-04T00:35:13.324Z,23.95
2017-07-04T00:36:13.257Z,23.98
2017-07-04T00:37:13.441Z,24.01
2017-07-04T00:38:13.307Z,23.98
2017-07-04T00:39:12.775Z,23.96
2017-07-04T00:40:13.281Z,24.03
2017-07-04T00:41:12.954Z,24.01
2017-07-04T00:42:12.619Z,23.96
2017-07-04T00:43:12.954Z,23.96
2017-07-04T00:44:13.003Z,23.96
2017-07-04T00:45:12.418Z,24.03
2017-07-04T00:46:12.640Z,23.98
2017-07-04T00:47:12.582Z,23.88
2017-07-04T00:48:12.207Z,23.98
2017-07-04T00:49:12.153Z,23.93
2017-07-04T00:50:12.091Z,23.95
2017-07-04T00:51:12.043Z,23.91
2017-07-04T00:52:12.286Z,23.96
2017-07-04T00:53:11.906Z,23.93
2017-07-04T00:54:12.132Z,23.98
2017-07-04T00:55:12.094Z,23.98
2017-07-04T00:56:11.727Z,23.96
2017-07-04T00:57:11.967Z,24.03
2017-07-04T00:58:11.884Z,23.91
2017-07-04T00:59:12.126Z,23.88
2017-07-04T01:00:11.724Z,23.91
2017-07-04T01:01:24.126Z,23.98
2017-07-04T01:02:11.626Z,23.95
2017-07-04T01:03:11.567Z,23.93
2017-07-04T01:04:11.195Z,23.88
2017-07-04T01:05:11.451Z,23.91
2017-07-04T01:06:11.072Z,23.91
2017-07-04T01:07:11.312Z,23.93
2017-07-04T01:08:10.637Z,23.92
2017-07-04T01:09:10.918Z,23.93
2017-07-04T01:10:10.945Z,23.88
2017-07-04T01:11:11.079Z,23.86
2017-07-04T01:12:11.023Z,23.95
2017-07-04T01:13:11.177Z,23.95
2017-07-04T01:14:10.593Z,23.93
2017-07-04T01:15:10.909Z,23.96
2017-07-04T01:16:10.781Z,23.95
2017-07-04T01:17:10.396Z,23.92
2017-07-04T01:18:10.315Z,23.93
2017-07-04T01:19:10.281Z,23.96
2017-07-04T01:20:10.780Z,23.96
2017-07-04T01:21:10.444Z,23.98
2017-07-04T01:22:10.073Z,23.86
2017-07-04T01:23:10.233Z,23.88
2017-07-04T01:24:09.966Z,23.88
2017-07-04T01:25:09.905Z,23.91
2017-07-04T01:26:09.815Z,23.96
2017-07-04T01:27:09.775Z,24.01
2017-07-04T01:28:10.032Z,23.91
2017-07-04T01:29:09.955Z,23.92
2017-07-04T01:30:09.896Z,23.91
2017-07-04T01:31:09.848Z,23.92
2017-07-04T01:32:09.154Z,23.96
2017-07-04T01:33:09.385Z,23.86
2017-07-04T01:34:09.326Z,23.95
2017-07-04T01:35:09.265Z,23.88
2017-07-04T01:36:09.211Z,23.96
2017-07-04T01:37:09.149Z,23.98
2017-07-04T01:38:09.388Z,23.99
2017-07-04T01:39:09.342Z,23.93
2017-07-04T01:40:09.275Z,23.87
2017-07-04T01:41:09.347Z,23.98
2017-07-04T01:42:08.827Z,23.95
2017-07-04T01:43:09.095Z,23.87
2017-07-04T01:44:09.020Z,23.93
2017-07-04T01:45:08.625Z,23.88
2017-07-04T01:46:08.589Z,23.98
2017-07-04T01:47:08.511Z,23.91
2017-07-04T01:48:08.769Z,23.96
2017-07-04T01:49:08.705Z,23.91
2017-07-04T01:50:08.036Z,23.92
2017-07-04T01:51:08.570Z,23.93
2017-07-04T01:52:08.504Z,23.87
2017-07-04T01:53:08.124Z,23.91
2017-07-04T01:54:07.772Z,23.95
2017-07-04T01:55:08.026Z,23.88
2017-07-04T01:56:08.269Z,23.92
2017-07-04T01:57:08.204Z,23.92
2017-07-04T01:58:08.144Z,23.88
2017-07-04T01:59:07.755Z,23.91
2017-07-04T02:00:07.800Z,23.92
2017-07-04T02:01:07.932Z,23.92
2017-07-04T02:02:07.568Z,23.96
2017-07-04T02:03:07.831Z,23.88
2017-07-04T02:04:07.784Z,23.91
2017-07-04T02:05:08.426Z,23.88
2017-07-04T02:06:07.315Z,23.88
2017-07-04T02:07:07.776Z,23.87
2017-07-04T02:08:07.513Z,23.91
2017-07-04T02:09:06.845Z,23.93
2017-07-04T02:10:07.300Z,23.92
2017-07-04T02:11:07.012Z,23.92
2017-07-04T02:12:06.644Z,23.88
2017-07-04T02:13:07.188Z,23.96
2017-07-04T02:14:06.508Z,23.88
2017-07-04T02:15:07.004Z,23.87
2017-07-04T02:16:06.382Z,23.88
2017-07-04T02:17:06.939Z,23.87
2017-07-04T02:18:06.926Z,23.93
2017-07-04T02:19:06.795Z,23.87
2017-07-04T02:20:07.014Z,23.86
2017-07-04T02:21:06.686Z,23.91
2017-07-04T02:22:06.663Z,23.83
2017-07-04T02:23:05.951Z,23.91
2017-07-04T02:24:06.205Z,23.92
2017-07-04T02:25:06.599Z,23.91
2017-07-04T02:26:06.060Z,23.98
2017-07-04T02:27:06.113Z,23.98
2017-07-04T02:28:06.254Z,23.91
2017-07-04T02:29:05.888Z,23.95
2017-07-04T02:30:05.963Z,23.88
2017-07-04T02:31:06.606Z,23.87
2017-07-04T02:32:05.388Z,23.95
2017-07-04T02:33:05.645Z,23.88
2017-07-04T02:34:05.548Z,23.86
2017-07-04T02:35:05.515Z,23.84
2017-07-04T02:36:05.146Z,23.84
2017-07-04T02:37:05.705Z,23.91
2017-07-04T02:38:05.322Z,23.95
2017-07-04T02:39:05.246Z,23.91
2017-07-04T02:40:05.422Z,23.88
2017-07-04T02:41:05.466Z,23.83
2017-07-04T02:42:05.068Z,23.92
2017-07-04T02:43:04.997Z,23.92
2017-07-04T02:44:04.919Z,23.95
2017-07-04T02:45:05.415Z,23.95
2017-07-04T02:46:05.101Z,23.88
2017-07-04T02:47:05.063Z,23.86
2017-07-04T02:48:04.705Z,23.86
2017-07-04T02:49:04.309Z,23.92
2017-07-04T02:50:05.010Z,23.88
2017-07-04T02:51:04.811Z,23.86
2017-07-04T02:52:04.436Z,23.99
2017-07-04T02:53:04.374Z,23.8
2017-07-04T02:54:04.317Z,23.96
2017-07-04T02:55:04.184Z,23.91
2017-07-04T02:56:04.175Z,23.98
2017-07-04T02:57:04.112Z,23.84
2017-07-04T02:58:04.050Z,23.96
2017-07-04T02:59:03.993Z,23.84
2017-07-04T03:00:04.101Z,23.96
2017-07-04T03:01:04.412Z,23.91
2017-07-04T03:02:03.802Z,23.84
2017-07-04T03:03:03.432Z,23.93
2017-07-04T03:04:04.013Z,23.88
2017-07-04T03:05:04.220Z,23.96
2017-07-04T03:06:03.548Z,23.84
2017-07-04T03:07:03.482Z,23.87
2017-07-04T03:08:03.441Z,23.87
2017-07-04T03:09:03.359Z,23.86
2017-07-04T03:10:03.756Z,23.88
2017-07-04T03:11:03.523Z,23.87
2017-07-04T03:12:03.492Z,23.84
2017-07-04T03:13:03.412Z,23.78
2017-07-04T03:14:03.051Z,23.84
2017-07-04T03:15:03.444Z,23.78
2017-07-04T03:16:02.944Z,23.86
2017-07-04T03:17:03.178Z,23.81
2017-07-04T03:18:03.090Z,23.83
2017-07-04T03:19:02.753Z,23.81
2017-07-04T03:20:03.279Z,23.81
2017-07-04T03:21:02.310Z,23.83
2017-07-04T03:22:02.561Z,23.83
2017-07-04T03:23:02.505Z,23.77
2017-07-04T03:24:02.425Z,23.86
2017-07-04T03:25:02.471Z,23.83
2017-07-04T03:26:02.308Z,23.8
2017-07-04T03:27:01.932Z,23.78
2017-07-04T03:28:02.170Z,23.78
2017-07-04T03:29:02.426Z,23.8
2017-07-04T03:30:01.746Z,23.83
2017-07-04T03:31:01.983Z,23.83
2017-07-04T03:32:01.629Z,23.83
2017-07-04T03:33:02.192Z,23.84
2017-07-04T03:34:02.132Z,23.8
2017-07-04T03:35:02.413Z,23.83
2017-07-04T03:36:01.987Z,23.84
2017-07-04T03:37:02.120Z,23.84
2017-07-04T03:38:01.846Z,23.8
2017-07-04T03:39:01.789Z,23.84
2017-07-04T03:40:01.733Z,23.8
2017-07-04T03:41:01.338Z,23.81
2017-07-04T03:42:01.455Z,23.84
2017-07-04T03:43:01.547Z,23.78
2017-07-04T03:44:01.479Z,23.83
2017-07-04T03:45:01.100Z,23.8
2017-07-04T03:46:01.357Z,23.78
2017-07-04T03:47:01.430Z,23.8
2017-07-04T03:48:01.219Z,23.83
2017-07-04T03:49:01.175Z,23.83
2017-07-04T03:50:01.094Z,23.78
2017-07-04T03:51:00.750Z,23.8
2017-07-04T03:52:00.985Z,23.77
2017-07-04T03:53:00.921Z,23.77
2017-07-04T03:54:00.847Z,23.78
2017-07-04T03:55:00.777Z,23.77
2017-07-04T03:56:00.408Z,23.76
2017-07-04T03:57:00.640Z,23.76
2017-07-04T03:58:00.440Z,23.74
2017-07-04T03:59:00.557Z,23.73
2017-07-04T04:00:00.151Z,23.76
2017-07-04T04:01:00.416Z,23.76
2017-07-04T04:02:00.349Z,23.8
2017-07-04T04:03:00.754Z,23.76
2017-07-04T04:04:00.218Z,23.73
2017-07-04T04:05:00.159Z,23.8
2017-07-04T04:05:59.471Z,23.77
2017-07-04T04:06:59.718Z,23.77
2017-07-04T04:08:00.117Z,23.78
2017-07-04T04:08:59.599Z,23.8
2017-07-04T04:09:59.853Z,23.77
2017-07-04T04:10:59.767Z,23.81
2017-07-04T04:11:59.725Z,23.81
2017-07-04T04:12:59.671Z,23.86
2017-07-04T04:13:59.289Z,23.83
2017-07-04T04:14:59.518Z,23.8
2017-07-04T04:15:59.441Z,23.81
2017-07-04T04:16:59.104Z,23.88
2017-07-04T04:17:59.046Z,23.96
2017-07-04T04:18:59.295Z,23.92
2017-07-04T04:19:59.206Z,23.93
2017-07-04T04:20:59.145Z,23.8
2017-07-04T04:21:59.096Z,23.84
2017-07-04T04:22:59.029Z,23.95
2017-07-04T04:23:59.261Z,23.84
2017-07-04T04:24:58.903Z,23.92
2017-07-04T04:25:58.819Z,23.81
2017-07-04T04:26:58.777Z,23.8
2017-07-04T04:27:58.740Z,23.87
2017-07-04T04:28:58.607Z,23.92
2017-07-04T04:29:58.572Z,23.92
2017-07-04T04:30:58.522Z,23.86
2017-07-04T04:31:58.153Z,23.96
2017-07-04T04:32:57.786Z,23.95
2017-07-04T04:33:58.286Z,23.84
2017-07-04T04:34:58.273Z,23.84
2017-07-04T04:35:57.586Z,23.96
2017-07-04T04:36:57.826Z,23.78
2017-07-04T04:37:58.076Z,23.88
2017-07-04T04:38:58.001Z,23.81
2017-07-04T04:39:57.983Z,23.87
2017-07-04T04:40:57.592Z,23.92
2017-07-04T04:41:57.529Z,23.92
2017-07-04T04:42:57.773Z,23.86
2017-07-04T04:43:57.717Z,23.86
2017-07-04T04:44:57.638Z,23.87
2017-07-04T04:45:57.288Z,23.86
2017-07-04T04:46:57.511Z,23.96
2017-07-04T04:47:56.841Z,23.93
2017-07-04T04:48:57.062Z,23.88
2017-07-04T04:49:57.162Z,23.88
2017-07-04T04:50:57.430Z,23.81
2017-07-04T04:51:57.186Z,23.91
2017-07-04T04:52:57.148Z,23.92
2017-07-04T04:53:56.757Z,23.92
2017-07-04T04:54:57.549Z,23.81
2017-07-04T04:55:56.999Z,23.88
2017-07-04T04:56:56.889Z,23.91
2017-07-04T04:57:56.818Z,23.99
2017-07-04T04:58:56.485Z,23.86
2017-07-04T04:59:56.285Z,23.87
2017-07-04T05:00:56.776Z,23.87
2017-07-04T05:02:04.448Z,23.93
2017-07-04T05:02:56.520Z,23.81
2017-07-04T05:03:56.459Z,23.96
2017-07-04T05:04:56.641Z,23.81
2017-07-04T05:05:56.332Z,23.86
2017-07-04T05:06:56.260Z,23.86
2017-07-04T05:07:55.885Z,23.98
2017-07-04T05:08:56.129Z,23.91
2017-07-04T05:09:56.091Z,23.83
2017-07-04T05:10:55.691Z,23.83
2017-07-04T05:11:55.653Z,23.83
2017-07-04T05:12:55.880Z,23.99
2017-07-04T05:13:55.815Z,23.87
2017-07-04T05:14:55.749Z,23.91
2017-07-04T05:15:55.831Z,23.8
2017-07-04T05:16:55.623Z,23.86
2017-07-04T05:17:55.574Z,23.93
2017-07-04T05:18:55.177Z,23.93
2017-07-04T05:19:55.131Z,23.86
2017-07-04T05:20:55.373Z,23.8
2017-07-04T05:21:54.703Z,23.8
2017-07-04T05:22:54.933Z,23.87
2017-07-04T05:23:54.905Z,23.87
2017-07-04T05:24:54.816Z,23.81
2017-07-04T05:25:55.046Z,23.84
2017-07-04T05:26:54.690Z,23.91
2017-07-04T05:27:54.626Z,23.91
2017-07-04T05:28:54.768Z,23.8
2017-07-04T05:29:54.809Z,23.78
2017-07-04T05:30:54.908Z,23.95
2017-07-04T05:31:54.375Z,23.87
2017-07-04T05:32:54.299Z,23.93
2017-07-04T05:33:54.569Z,23.93
2017-07-04T05:34:54.493Z,23.92
2017-07-04T05:35:54.556Z,23.88
2017-07-04T05:36:53.741Z,23.92
2017-07-04T05:37:54.314Z,23.91
2017-07-04T05:38:54.229Z,23.86
2017-07-04T05:39:54.182Z,23.93
2017-07-04T05:40:54.443Z,23.88
2017-07-04T05:41:53.918Z,23.81
2017-07-04T05:42:53.692Z,23.92
2017-07-04T05:43:53.910Z,23.92
2017-07-04T05:44:53.570Z,23.84
2017-07-04T05:45:53.904Z,23.92
2017-07-04T05:46:53.490Z,23.87
2017-07-04T05:47:53.711Z,23.83
2017-07-04T05:48:53.306Z,23.95
2017-07-04T05:49:53.572Z,23.81
2017-07-04T05:50:53.497Z,23.92
2017-07-04T05:51:53.391Z,23.88
2017-07-04T05:52:53.364Z,23.87
2017-07-04T05:53:53.320Z,23.92
2017-07-04T05:54:53.271Z,23.88
2017-07-04T05:55:53.016Z,23.93
2017-07-04T05:56:53.303Z,23.86
2017-07-04T05:57:52.778Z,23.83
2017-07-04T05:58:53.020Z,23.92
2017-07-04T05:59:52.962Z,23.92
2017-07-04T06:00:52.724Z,23.84
2017-07-04T06:01:52.996Z,23.92
2017-07-04T06:02:52.843Z,23.88
2017-07-04T06:03:52.693Z,23.91
2017-07-04T06:04:52.626Z,23.93
2017-07-04T06:05:52.734Z,23.98
2017-07-04T06:06:52.198Z,23.83
2017-07-04T06:07:52.573Z,23.87
2017-07-04T06:08:52.348Z,23.87
2017-07-04T06:09:52.310Z,23.87
2017-07-04T06:10:52.406Z,23.87
2017-07-04T06:11:52.166Z,23.87
2017-07-04T06:12:52.366Z,23.87
2017-07-04T06:13:51.729Z,23.86
2017-07-04T06:14:51.991Z,23.88
2017-07-04T06:15:52.191Z,23.95
2017-07-04T06:16:51.540Z,23.91
2017-07-04T06:17:52.242Z,23.88
2017-07-04T06:18:51.735Z,23.96
2017-07-04T06:19:51.663Z,23.86
2017-07-04T06:20:51.538Z,23.88
2017-07-04T06:21:51.552Z,23.88
2017-07-04T06:22:51.506Z,23.83
2017-07-04T06:23:51.490Z,23.88
2017-07-04T06:24:50.743Z,23.86
2017-07-04T06:25:51.459Z,23.99
2017-07-04T06:26:51.239Z,23.88
2017-07-04T06:27:51.186Z,23.93
2017-07-04T06:28:51.121Z,23.99
2017-07-04T06:29:51.062Z,23.95
2017-07-04T06:30:51.136Z,23.91
2017-07-04T06:31:50.612Z,23.96
2017-07-04T06:32:50.846Z,23.91
2017-07-04T06:34:05.372Z,23.88
2017-07-04T06:34:50.727Z,23.91
2017-07-04T06:35:50.658Z,23.92
2017-07-04T06:36:50.273Z,23.88
2017-07-04T06:37:49.926Z,23.84
2017-07-04T06:38:50.828Z,23.86
2017-07-04T06:39:50.472Z,23.86
2017-07-04T06:40:50.252Z,23.87
2017-07-04T06:41:50.280Z,23.86
2017-07-04T06:42:50.238Z,23.87
2017-07-04T06:43:49.845Z,23.87
2017-07-04T06:44:50.123Z,23.91
2017-07-04T06:45:50.244Z,23.93
2017-07-04T06:46:49.978Z,23.91
2017-07-04T06:47:49.613Z,23.86
2017-07-04T06:48:49.261Z,23.8
2017-07-04T06:49:49.462Z,23.8
2017-07-04T06:50:49.803Z,23.87
2017-07-04T06:51:49.358Z,23.77
2017-07-04T06:52:49.601Z,23.8
2017-07-04T06:53:49.224Z,23.92
2017-07-04T06:54:49.486Z,23.95
2017-07-04T06:55:49.732Z,23.92
2017-07-04T06:56:49.091Z,23.98
2017-07-04T06:57:48.968Z,23.83
2017-07-04T06:58:48.904Z,23.78
2017-07-04T06:59:49.152Z,23.92
2017-07-04T07:00:49.189Z,23.87
2017-07-04T07:01:48.731Z,23.87
2017-07-04T07:02:58.553Z,23.95
2017-07-04T07:03:48.901Z,23.92
2017-07-04T07:04:48.836Z,23.95
2017-07-04T07:05:48.791Z,23.92
2017-07-04T07:06:48.630Z,23.84
2017-07-04T07:07:48.653Z,23.92
2017-07-04T07:08:48.623Z,23.93
2017-07-04T07:09:48.223Z,23.92
2017-07-04T07:10:48.907Z,23.93
2017-07-04T07:11:48.084Z,23.87
2017-07-04T07:12:48.335Z,23.92
2017-07-04T07:13:48.296Z,23.96
2017-07-04T07:14:48.215Z,23.91
2017-07-04T07:15:47.984Z,23.92
2017-07-04T07:16:48.092Z,23.96
2017-07-04T07:17:47.715Z,23.92
2017-07-04T07:18:47.963Z,23.87
2017-07-04T07:19:47.897Z,23.87
2017-07-04T07:20:47.965Z,23.92
2017-07-04T07:21:47.456Z,23.87
2017-07-04T07:22:47.711Z,23.92
2017-07-04T07:23:47.352Z,23.98
2017-07-04T07:24:47.268Z,23.88
2017-07-04T07:25:47.458Z,23.96
2017-07-04T07:26:47.152Z,23.86
2017-07-04T07:27:47.399Z,23.88
2017-07-04T07:28:47.018Z,23.95
2017-07-04T07:29:47.004Z,23.86
2017-07-04T07:30:47.194Z,23.95
2017-07-04T07:31:47.403Z,23.93
2017-07-04T07:32:47.073Z,23.86
2017-07-04T07:33:47.027Z,23.99
2017-07-04T07:34:46.647Z,23.91
2017-07-04T07:35:47.063Z,24.01
2017-07-04T07:36:47.000Z,24.01
2017-07-04T07:37:46.789Z,23.95
2017-07-04T07:38:46.706Z,23.86
2017-07-04T07:39:46.675Z,23.93
2017-07-04T07:40:46.746Z,23.91
2017-07-04T07:41:46.854Z,23.91
2017-07-04T07:42:46.234Z,23.91
2017-07-04T07:43:45.794Z,23.88
2017-07-04T07:44:46.031Z,23.95
2017-07-04T07:45:46.356Z,23.95
2017-07-04T07:46:45.901Z,23.92
2017-07-04T07:47:45.543Z,23.95
2017-07-04T07:48:45.445Z,23.92
2017-07-04T07:49:46.033Z,23.98
2017-07-04T07:50:46.073Z,23.96
2017-07-04T07:51:45.587Z,23.96
2017-07-04T07:52:45.831Z,23.96
2017-07-04T07:53:45.746Z,23.96
2017-07-04T07:54:45.698Z,23.95
2017-07-04T07:55:45.134Z,23.99
2017-07-04T07:56:45.261Z,24.06
2017-07-04T07:57:45.372Z,24.03
2017-07-04T07:58:45.133Z,23.96
2017-07-04T07:59:45.401Z,24.03
2017-07-04T08:00:44.856Z,24.06
2017-07-04T08:01:44.968Z,24.03
2017-07-04T08:02:45.244Z,24.02
2017-07-04T08:03:45.148Z,24.02
2017-07-04T08:04:45.094Z,24.03
2017-07-04T08:05:45.002Z,24.1
2017-07-04T08:06:44.953Z,24.02
2017-07-04T08:07:44.886Z,24.05
2017-07-04T08:08:44.520Z,24.1
2017-07-04T08:09:44.448Z,24.08
2017-07-04T08:10:45.094Z,24.05
2017-07-04T08:11:44.022Z,24.02
2017-07-04T08:12:43.957Z,24.1
2017-07-04T08:13:44.504Z,23.98
2017-07-04T08:14:44.153Z,24.1
2017-07-04T08:15:44.534Z,24.11
2017-07-04T08:16:44.377Z,24.08
2017-07-04T08:17:44.232Z,24.13
2017-07-04T08:18:44.203Z,24.08
2017-07-04T08:19:43.498Z,24.18
2017-07-04T08:20:44.158Z,24.14
2017-07-04T08:21:43.696Z,24.16
2017-07-04T08:22:43.945Z,24.21
2017-07-04T08:23:43.872Z,24.16
2017-07-04T08:24:43.844Z,24.11
2017-07-04T08:25:43.433Z,24.14
2017-07-04T08:26:43.696Z,24.2
2017-07-04T08:27:43.637Z,24.23
2017-07-04T08:28:43.260Z,24.2
2017-07-04T08:29:43.502Z,24.24
2017-07-04T08:30:43.127Z,24.23
2017-07-04T08:31:43.063Z,24.28
2017-07-04T08:32:43.319Z,24.26
2017-07-04T08:33:43.261Z,24.21
2017-07-04T08:34:42.881Z,24.28
2017-07-04T08:35:43.313Z,24.26
2017-07-04T08:36:42.451Z,24.32
2017-07-04T08:37:43.069Z,24.28
2017-07-04T08:38:42.945Z,24.28
2017-07-04T08:39:42.894Z,24.28
2017-07-04T08:40:42.507Z,24.3
2017-07-04T08:41:42.443Z,24.32
2017-07-04T08:42:42.754Z,24.3
2017-07-04T08:43:42.617Z,24.26
2017-07-04T08:44:42.554Z,24.32
2017-07-04T08:45:42.458Z,24.23
2017-07-04T08:46:42.119Z,24.3
2017-07-04T08:47:42.366Z,24.24
2017-07-04T08:48:42.027Z,24.33
2017-07-04T08:49:41.934Z,24.39
2017-07-04T08:50:41.864Z,24.32
2017-07-04T08:51:41.813Z,24.42
2017-07-04T08:52:42.062Z,24.29
2017-07-04T08:53:41.992Z,24.43
2017-07-04T08:54:41.924Z,24.42
2017-07-04T08:55:42.133Z,24.47
2017-07-04T08:56:41.506Z,24.4
2017-07-04T08:57:41.746Z,24.43
2017-07-04T08:58:41.708Z,24.38
2017-07-04T08:59:41.644Z,24.39
2017-07-04T09:00:41.377Z,24.47
2017-07-04T09:01:41.198Z,24.36
2017-07-04T09:02:41.441Z,24.47
2017-07-04T09:03:41.383Z,24.45
2017-07-04T09:04:41.006Z,24.4
2017-07-04T09:05:41.491Z,24.43
2017-07-04T09:06:41.182Z,24.53
2017-07-04T09:07:41.119Z,24.54
2017-07-04T09:08:41.112Z,24.57
2017-07-04T09:09:41.004Z,24.51
2017-07-04T09:10:41.013Z,24.53
2017-07-04T09:11:40.866Z,24.48
2017-07-04T09:12:40.190Z,24.5
2017-07-04T09:13:40.440Z,24.48
2017-07-04T09:14:40.375Z,24.53
2017-07-04T09:15:40.771Z,24.57
2017-07-04T09:16:40.269Z,24.48
2017-07-04T09:17:40.493Z,24.55
2017-07-04T09:18:40.136Z,24.48
2017-07-04T09:19:40.387Z,24.48
2017-07-04T09:20:40.418Z,24.51
2017-07-04T09:21:39.930Z,24.55
2017-07-04T09:22:40.190Z,24.5
2017-07-04T09:23:40.126Z,24.47
2017-07-04T09:24:39.771Z,24.51
2017-07-04T09:25:40.131Z,24.55
2017-07-04T09:26:39.944Z,24.6
2017-07-04T09:27:39.859Z,24.51
2017-07-04T09:28:39.793Z,24.47
2017-07-04T09:29:39.435Z,24.51
2017-07-04T09:30:39.935Z,24.47
2017-07-04T09:31:39.634Z,24.55
2017-07-04T09:32:39.559Z,24.54
2017-07-04T09:33:39.518Z,24.5
2017-07-04T09:34:39.437Z,24.5
2017-07-04T09:35:39.670Z,24.51
2017-07-04T09:36:38.704Z,24.53
2017-07-04T09:37:39.238Z,24.51
2017-07-04T09:38:39.185Z,24.45
2017-07-04T09:39:38.828Z,24.5
2017-07-04T09:40:39.516Z,24.51
2017-07-04T09:41:39.004Z,24.5
2017-07-04T09:42:38.644Z,24.55
2017-07-04T09:43:38.278Z,24.53
2017-07-04T09:44:38.814Z,24.43
2017-07-04T09:45:38.134Z,24.45
2017-07-04T09:46:38.394Z,24.43
2017-07-04T09:47:38.621Z,24.48
2017-07-04T09:48:37.953Z,24.48
2017-07-04T09:49:38.198Z,24.48
2017-07-04T09:50:38.243Z,24.53
2017-07-04T09:51:38.053Z,24.39
2017-07-04T09:52:38.306Z,24.5
2017-07-04T09:53:38.286Z,24.48
2017-07-04T09:54:37.892Z,24.48
2017-07-04T09:55:38.209Z,24.53
2017-07-04T09:56:38.094Z,24.47
2017-07-04T09:57:37.695Z,24.53
2017-07-04T09:58:37.946Z,24.47
2017-07-04T09:59:37.898Z,24.55
2017-07-04T10:00:37.447Z,24.5
2017-07-04T10:01:37.755Z,24.53
2017-07-04T10:02:37.688Z,24.5
2017-07-04T10:03:37.654Z,24.51
2017-07-04T10:04:37.252Z,24.5
2017-07-04T10:05:38.083Z,24.53
2017-07-04T10:06:37.436Z,24.6
2017-07-04T10:07:37.374Z,24.54
2017-07-04T10:08:37.004Z,24.61
2017-07-04T10:09:36.956Z,24.63
2017-07-04T10:10:37.037Z,24.57
2017-07-04T10:11:36.820Z,24.53
2017-07-04T10:12:37.063Z,24.57
2017-07-04T10:13:37.030Z,24.58
2017-07-04T10:14:36.941Z,24.58
2017-07-04T10:15:37.068Z,24.58
2017-07-04T10:16:36.520Z,24.55
2017-07-04T10:17:36.743Z,24.58
2017-07-04T10:18:36.705Z,24.57
2017-07-04T10:19:36.330Z,24.51
2017-07-04T10:20:36.247Z,24.57
2017-07-04T10:21:36.515Z,24.55
2017-07-04T10:22:35.845Z,24.6
2017-07-04T10:23:36.392Z,24.54
2017-07-04T10:24:36.326Z,24.6
2017-07-04T10:25:36.424Z,24.55
2017-07-04T10:26:36.210Z,24.65
2017-07-04T10:27:35.813Z,24.65
2017-07-04T10:28:36.076Z,24.63
2017-07-04T10:29:35.701Z,24.54
2017-07-04T10:30:35.662Z,24.65
2017-07-04T10:31:35.557Z,24.57
2017-07-04T10:32:35.852Z,24.6
2017-07-04T10:33:35.737Z,24.61
2017-07-04T10:34:35.446Z,24.6
2017-07-04T10:35:35.865Z,24.55
2017-07-04T10:36:35.270Z,24.65
2017-07-04T10:37:35.512Z,24.57
2017-07-04T10:38:35.133Z,24.55
2017-07-04T10:39:35.061Z,24.57
2017-07-04T10:40:35.271Z,24.57
2017-07-04T10:41:35.273Z,24.58
2017-07-04T10:42:34.583Z,24.57
2017-07-04T10:43:35.139Z,24.61
2017-07-04T10:44:34.747Z,24.57
2017-07-04T10:45:35.113Z,24.54
2017-07-04T10:46:34.941Z,24.58
2017-07-04T10:47:34.878Z,24.57
2017-07-04T10:48:34.515Z,24.57
2017-07-04T10:49:34.773Z,24.57
2017-07-04T10:50:34.693Z,24.54
2017-07-04T10:51:34.662Z,24.65
2017-07-04T10:52:34.276Z,24.6
2017-07-04T10:53:34.212Z,24.65
2017-07-04T10:54:34.454Z,24.57
2017-07-04T10:55:33.809Z,24.55
2017-07-04T10:56:34.334Z,24.57
2017-07-04T10:57:33.653Z,24.54
2017-07-04T10:58:33.577Z,24.61
2017-07-04T10:59:33.835Z,24.63
2017-07-04T11:00:34.104Z,24.6
2017-07-04T11:01:34.019Z,24.61
2017-07-04T11:02:33.962Z,24.6
2017-07-04T11:03:36.564Z,24.54
2017-07-04T11:04:33.822Z,24.57
2017-07-04T11:05:34.123Z,24.53
2017-07-04T11:06:33.394Z,24.53
2017-07-04T11:07:33.635Z,24.53
2017-07-04T11:08:33.457Z,24.58
2017-07-04T11:09:33.269Z,24.57
2017-07-04T11:10:33.442Z,24.54
2017-07-04T11:11:33.383Z,24.63
2017-07-04T11:12:33.036Z,24.54
2017-07-04T11:13:32.680Z,24.54
2017-07-04T11:14:33.213Z,24.65
2017-07-04T11:15:33.297Z,24.57
2017-07-04T11:16:33.079Z,24.58
2017-07-04T11:17:32.706Z,24.57
2017-07-04T11:18:32.636Z,24.61
2017-07-04T11:19:32.580Z,24.51
2017-07-04T11:20:32.671Z,24.54
2017-07-04T11:21:32.753Z,24.5
2017-07-04T11:22:32.397Z,24.51
2017-07-04T11:23:32.337Z,24.57
2017-07-04T11:24:32.288Z,24.58
2017-07-04T11:25:32.366Z,24.6
2017-07-04T11:26:32.157Z,24.5
2017-07-04T11:27:32.396Z,24.58
2017-07-04T11:28:32.327Z,24.58
2017-07-04T11:29:31.944Z,24.55
2017-07-04T11:30:32.105Z,24.58
2017-07-04T11:31:32.155Z,24.57
2017-07-04T11:32:31.777Z,24.58
2017-07-04T11:33:31.726Z,24.54
2017-07-04T11:34:31.950Z,24.58
2017-07-04T11:35:31.583Z,24.47
2017-07-04T11:36:31.811Z,24.57
2017-07-04T11:37:31.149Z,24.54
2017-07-04T11:38:31.718Z,24.55
2017-07-04T11:39:31.662Z,24.51
2017-07-04T11:40:31.910Z,24.63
2017-07-04T11:41:30.916Z,24.55
2017-07-04T11:42:31.464Z,24.63
2017-07-04T11:43:31.398Z,24.53
2017-07-04T11:44:31.026Z,24.5
2017-07-04T11:45:31.674Z,24.5
2017-07-04T11:46:30.882Z,24.57
2017-07-04T11:47:30.855Z,24.53
2017-07-04T11:48:30.790Z,24.55
2017-07-04T11:49:31.049Z,24.58
2017-07-04T11:50:30.802Z,24.51
2017-07-04T11:51:30.884Z,24.57
2017-07-04T11:52:30.522Z,24.55
2017-07-04T11:53:30.766Z,24.51
2017-07-04T11:54:30.909Z,24.53
2017-07-04T11:55:30.336Z,24.58
2017-07-04T11:56:30.291Z,24.57
2017-07-04T11:57:30.527Z,24.57
2017-07-04T11:58:30.449Z,24.53
2017-07-04T11:59:30.583Z,24.58
2017-07-04T12:00:30.132Z,24.58
2017-07-04T12:01:30.146Z,24.55
2017-07-04T12:02:30.306Z,24.61
2017-07-04T12:03:29.831Z,24.58
2017-07-04T12:04:30.384Z,24.55
2017-07-04T12:05:29.652Z,24.55
2017-07-04T12:06:29.974Z,24.6
2017-07-04T12:07:29.590Z,24.65
2017-07-04T12:08:29.538Z,24.65
2017-07-04T12:09:29.822Z,24.58
2017-07-04T12:10:29.650Z,24.61
2017-07-04T12:11:29.637Z,24.55
2017-07-04T12:12:29.425Z,24.57
2017-07-04T12:13:29.519Z,24.57
2017-07-04T12:14:29.485Z,24.57
2017-07-04T12:15:29.109Z,24.57
2017-07-04T12:16:29.580Z,24.54
2017-07-04T12:17:29.278Z,24.57
2017-07-04T12:18:28.921Z,24.54
2017-07-04T12:19:28.862Z,24.58
2017-07-04T12:20:28.782Z,24.55
2017-07-04T12:21:28.945Z,24.6
2017-07-04T12:22:28.342Z,24.54
2017-07-04T12:23:28.897Z,24.61
2017-07-04T12:24:28.862Z,24.58
2017-07-04T12:25:28.935Z,24.61
2017-07-04T12:26:28.121Z,24.68
2017-07-04T12:27:28.322Z,24.61
2017-07-04T12:28:28.264Z,24.61
2017-07-04T12:29:28.275Z,24.61
2017-07-04T12:30:28.733Z,24.57
2017-07-04T12:31:27.776Z,24.74
2017-07-04T12:32:28.346Z,24.73
2017-07-04T12:33:28.084Z,24.74
2017-07-04T12:34:27.961Z,24.69
2017-07-04T12:35:28.140Z,24.74
2017-07-04T12:36:28.079Z,24.8
2017-07-04T12:37:28.051Z,24.8
2017-07-04T12:38:28.193Z,24.74
2017-07-04T12:39:28.113Z,24.77
2017-07-04T12:40:27.528Z,24.66
2017-07-04T12:41:27.522Z,24.69
2017-07-04T12:42:27.479Z,24.74
2017-07-04T12:43:27.695Z,24.77
2017-07-04T12:44:27.273Z,24.78
2017-07-04T12:45:27.780Z,24.8
2017-07-04T12:46:28.072Z,24.78
2017-07-04T12:47:27.868Z,24.81
2017-07-04T12:48:27.035Z,24.78
2017-07-04T12:49:27.264Z,24.78
2017-07-04T12:50:27.223Z,24.78
2017-07-04T12:51:27.145Z,24.85
2017-07-04T12:52:27.087Z,24.91
2017-07-04T12:53:27.037Z,24.92
2017-07-04T12:54:26.944Z,24.85